Ginys del Meteocat

Dades de l'estació automàtica Baldomar

?
?
Resum diari 22:30 TU
Dades diàries de l'estació meteorològica
Temperatura mitjana 6.1 °C
Temperatura màxima 13.2 °C 13:40 TU
Temperatura mínima 1.0 °C 8:16 TU
Humitat relativa mitjana 88%
Precipitació acumulada 0.0 mm
Ratxa màxima del vent (2 m) 13.3 km/h - 173º 15:20 TU
Irradiació solar global 9.4 MJ/m2

El tram horari està expressat en Temps Universal (TU). Cal sumar una hora en horari d'hivern i dues en horari d'estiu per passar a l'hora oficial.

Baldomar

Metadades estació meteorol´gica
Municipi Artesa de Segre
Comarca Noguera
Altitud 366 m
Data alta 24.10.2006
Estat actual Operativa
Dades de període
Període
TU
TM
°C
TX
°C
TN
°C
HRM
%
PPT
mm
VVM (2 m)
km/h
DVM (2 m)
graus
VVX (2 m)
km/h
RS
W/m2
00:00 - 00:30 4.2 4.5 4.0 99 0.0 1.4 330 4.0 0
00:30 - 01:00 4.2 4.5 4.0 99 0.0 2.2 330 4.7 0
01:00 - 01:30 5.0 5.3 4.4 96 0.0 1.8 50 3.6 0
01:30 - 02:00 5.5 5.7 5.2 92 0.0 0.7 54 3.2 0
02:00 - 02:30 5.3 5.6 4.9 93 0.0 1.1 352 2.5 0
02:30 - 03:00 4.8 5.1 4.2 96 0.0 1.1 240 4.0 0
03:00 - 03:30 4.1 4.2 3.9 99 0.0 2.9 91 5.0 0
03:30 - 04:00 3.7 4.0 3.4 100 0.0 2.9 357 6.1 0
04:00 - 04:30 4.0 4.3 3.6 98 0.0 2.2 54 5.4 0
04:30 - 05:00 3.3 3.7 2.6 97 0.0 1.8 89 6.5 0
05:00 - 05:30 2.7 3.4 2.1 99 0.0 2.9 57 4.3 0
05:30 - 06:00 2.8 3.3 2.3 100 0.0 1.1 13 2.5 0
06:00 - 06:30 2.4 2.8 2.0 100 0.0 1.4 94 4.7 0
06:30 - 07:00 2.0 2.4 1.7 100 0.0 0.7 70 3.6 0
07:00 - 07:30 1.6 2.2 1.3 100 0.0 0.7 3 2.9 4
07:30 - 08:00 1.8 2.3 1.5 100 0.0 2.2 114 4.3 35
08:00 - 08:30 1.2 1.7 1.0 100 0.0 1.8 345 4.0 89
08:30 - 09:00 2.4 3.4 1.8 100 0.0 1.1 304 3.2 175
09:00 - 09:30 3.7 4.9 2.9 96 0.0 0.7 302 3.2 252
09:30 - 10:00 4.9 5.3 4.5 92 0.0 2.2 275 4.7 324
10:00 - 10:30 5.8 6.7 5.1 90 0.0 1.8 296 4.3 382
10:30 - 11:00 7.1 7.6 6.6 86 0.0 2.9 244 8.6 436
11:00 - 11:30 8.4 8.9 7.7 78 0.0 2.2 183 5.0 441
11:30 - 12:00 9.6 10.4 8.9 71 0.0 3.6 163 7.9 492
12:00 - 12:30 10.8 11.5 10.1 68 0.0 2.2 187 6.1 390
12:30 - 13:00 11.3 11.7 11.0 66 0.0 2.9 145 7.2 370
13:00 - 13:30 12.1 13.1 11.5 65 0.0 2.5 159 6.1 455
13:30 - 14:00 12.7 13.2 12.5 63 0.0 5.0 199 9.7 459
14:00 - 14:30 12.8 12.9 12.6 62 0.0 5.8 170 12.2 324
14:30 - 15:00 12.8 12.9 12.7 62 0.0 6.5 166 10.1 291
15:00 - 15:30 12.6 12.8 12.4 62 0.0 9.4 171 13.3 220
15:30 - 16:00 11.8 12.4 11.0 68 0.0 6.8 178 11.2 102
16:00 - 16:30 10.5 10.9 10.2 71 0.0 2.5 230 8.3 32
16:30 - 17:00 9.6 10.2 9.0 76 0.0 1.1 247 5.4 11
17:00 - 17:30 8.3 9.0 7.5 82 0.0 2.5 53 6.5 0
17:30 - 18:00 7.6 8.2 6.6 85 0.0 1.8 35 4.7 0
18:00 - 18:30 6.4 7.1 5.8 90 0.0 2.5 39 6.5 0
18:30 - 19:00 6.4 6.7 5.8 91 0.0 0.7 24 4.0 0
19:00 - 19:30 5.2 5.8 4.8 94 0.0 2.5 114 5.4 0
19:30 - 20:00 5.5 5.8 4.8 93 0.0 2.2 71 4.7 0
20:00 - 20:30 4.7 5.0 4.1 95 0.0 1.4 53 3.6 0
20:30 - 21:00 4.4 4.6 4.1 98 0.0 0.4 75 2.5 0
21:00 - 21:30 4.4 4.6 4.1 98 0.0 0.7 65 2.2 0
21:30 - 22:00 4.2 4.6 3.8 98 0.0 2.2 69 5.0 0
22:00 - 22:30 3.8 3.9 3.8 99 0.0 1.4 99 3.6 0
22:30 - 23:00 4.1 4.1 3.9 99 0.0 0.7 335 3.2 0

Les dades en taronja només han passat un control de qualitat automàtic. Resta pendent la seva validació definitiva.